sensor_id;sensor_type;location;lat;lon;timestamp;pressure;altitude;pressure_sealevel;temperature;humidity
24422;BME280;12600;53.326;-6.298;2024-01-15T02:18:02;101136.31;;;2.79;91.23
24422;BME280;12600;53.326;-6.298;2024-01-15T02:20:52;101124.00;;;2.67;92.63
24422;BME280;12600;53.326;-6.298;2024-01-15T02:23:43;101128.41;;;2.73;92.21
24422;BME280;12600;53.326;-6.298;2024-01-15T02:26:33;101114.34;;;2.71;92.39
24422;BME280;12600;53.326;-6.298;2024-01-15T02:29:24;101113.84;;;2.74;92.04
24422;BME280;12600;53.326;-6.298;2024-01-15T02:32:13;101121.59;;;2.70;92.47
24422;BME280;12600;53.326;-6.298;2024-01-15T02:35:03;101121.59;;;2.70;93.03
24422;BME280;12600;53.326;-6.298;2024-01-15T02:37:53;101120.06;;;2.74;93.02
24422;BME280;12600;53.326;-6.298;2024-01-15T02:40:44;101122.78;;;2.74;92.41
24422;BME280;12600;53.326;-6.298;2024-01-15T02:43:34;101115.97;;;2.72;93.08
24422;BME280;12600;53.326;-6.298;2024-01-15T02:46:23;101113.44;;;2.65;93.38
24422;BME280;12600;53.326;-6.298;2024-01-15T02:49:13;101115.41;;;2.70;93.22
24422;BME280;12600;53.326;-6.298;2024-01-15T02:52:03;101121.53;;;2.65;94.42
24422;BME280;12600;53.326;-6.298;2024-01-15T02:54:53;101126.75;;;2.72;93.70
24422;BME280;12600;53.326;-6.298;2024-01-15T02:57:44;101116.16;;;2.65;93.78
24422;BME280;12600;53.326;-6.298;2024-01-15T03:00:33;101124.31;;;2.70;94.04
24422;BME280;12600;53.326;-6.298;2024-01-15T03:03:23;101119.47;;;2.72;92.96
24422;BME280;12600;53.326;-6.298;2024-01-15T03:06:12;101117.28;;;2.69;93.96
24422;BME280;12600;53.326;-6.298;2024-01-15T03:09:02;101112.69;;;2.70;93.56
24422;BME280;12600;53.326;-6.298;2024-01-15T03:11:51;101113.19;;;2.67;93.27
24422;BME280;12600;53.326;-6.298;2024-01-15T03:14:42;101118.09;;;2.70;93.33
24422;BME280;12600;53.326;-6.298;2024-01-15T03:17:32;101122.94;;;2.68;93.23
24422;BME280;12600;53.326;-6.298;2024-01-15T03:20:21;101115.91;;;2.67;93.48
24422;BME280;12600;53.326;-6.298;2024-01-15T03:23:11;101119.47;;;2.72;92.92
24422;BME280;12600;53.326;-6.298;2024-01-15T03:26:00;101122.94;;;2.68;92.66
24422;BME280;12600;53.326;-6.298;2024-01-15T03:28:50;101117.78;;;2.66;92.57
24422;BME280;12600;53.326;-6.298;2024-01-15T03:31:41;101122.38;;;2.66;91.96
24422;BME280;12600;53.326;-6.298;2024-01-15T03:34:30;101126.59;;;2.62;91.89
24422;BME280;12600;53.326;-6.298;2024-01-15T03:37:20;101127.66;;;2.61;92.05
24422;BME280;12600;53.326;-6.298;2024-01-15T03:40:11;101115.41;;;2.53;91.90
24422;BME280;12600;53.326;-6.298;2024-01-15T03:43:00;101121.34;;;2.55;92.54
24422;BME280;12600;53.326;-6.298;2024-01-15T03:45:50;101119.16;;;2.52;92.71
24422;BME280;12600;53.326;-6.298;2024-01-15T03:48:41;101114.00;;;2.50;92.86
24422;BME280;12600;53.326;-6.298;2024-01-15T03:51:30;101115.41;;;2.53;92.69
24422;BME280;12600;53.326;-6.298;2024-01-15T03:54:20;101116.22;;;2.53;92.96
24422;BME280;12600;53.326;-6.298;2024-01-15T03:57:09;101115.66;;;2.51;92.87
24422;BME280;12600;53.326;-6.298;2024-01-15T03:59:58;101104.75;;;2.46;92.56
24422;BME280;12600;53.326;-6.298;2024-01-15T04:02:48;101095.94;;;2.51;93.12
24422;BME280;12600;53.326;-6.298;2024-01-15T04:05:39;101096.50;;;2.53;92.85
24422;BME280;12600;53.326;-6.298;2024-01-15T04:08:28;101094.88;;;2.52;93.36
24422;BME280;12600;53.326;-6.298;2024-01-15T04:11:18;101087.84;;;2.51;93.23
24422;BME280;12600;53.326;-6.298;2024-01-15T04:14:07;101086.22;;;2.50;92.95
24422;BME280;12600;53.326;-6.298;2024-01-15T04:16:56;101098.16;;;2.54;92.55
24422;BME280;12600;53.326;-6.298;2024-01-15T04:19:46;101106.81;;;2.56;92.61
24422;BME280;12600;53.326;-6.298;2024-01-15T04:22:37;101112.69;;;2.53;92.25
24422;BME280;12600;53.326;-6.298;2024-01-15T04:25:27;101112.69;;;2.53;92.28
24422;BME280;12600;53.326;-6.298;2024-01-15T04:28:16;101099.13;;;2.48;92.56
24422;BME280;12600;53.326;-6.298;2024-01-15T04:31:05;101095.03;;;2.45;92.49
24422;BME280;12600;53.326;-6.298;2024-01-15T04:33:55;101105.00;;;2.45;92.35
24422;BME280;12600;53.326;-6.298;2024-01-15T04:36:45;101108.78;;;2.44;92.65
24422;BME280;12600;53.326;-6.298;2024-01-15T04:39:35;101109.50;;;2.39;92.29
24422;BME280;12600;53.326;-6.298;2024-01-15T04:42:25;101101.09;;;2.36;93.08
24422;BME280;12600;53.326;-6.298;2024-01-15T04:45:14;101094.53;;;2.32;93.09
24422;BME280;12600;53.326;-6.298;2024-01-15T04:48:04;101093.41;;;2.28;93.79
24422;BME280;12600;53.326;-6.298;2024-01-15T04:50:54;101086.44;;;2.32;93.24
24422;BME280;12600;53.326;-6.298;2024-01-15T04:53:44;101089.38;;;2.30;92.85
24422;BME280;12600;53.326;-6.298;2024-01-15T04:56:34;101109.66;;;2.33;93.03
24422;BME280;12600;53.326;-6.298;2024-01-15T04:59:24;101127.22;;;2.35;93.14
24422;BME280;12600;53.326;-6.298;2024-01-15T05:02:13;101119.97;;;2.36;92.33
24422;BME280;12600;53.326;-6.298;2024-01-15T05:05:03;101121.03;;;2.35;92.45
24422;BME280;12600;53.326;-6.298;2024-01-15T05:07:53;101103.69;;;2.31;92.58
24422;BME280;12600;53.326;-6.298;2024-01-15T05:10:42;101105.25;;;2.27;92.78
24422;BME280;12600;53.326;-6.298;2024-01-15T05:13:33;101099.19;;;2.19;92.79
24422;BME280;12600;53.326;-6.298;2024-01-15T05:16:22;101118.63;;;2.21;92.65
24422;BME280;12600;53.326;-6.298;2024-01-15T05:19:12;101125.06;;;2.20;92.93
24422;BME280;12600;53.326;-6.298;2024-01-15T05:22:01;101124.50;;;2.18;92.53
24422;BME280;12600;53.326;-6.298;2024-01-15T05:24:51;101121.47;;;2.15;92.68
24422;BME280;12600;53.326;-6.298;2024-01-15T05:27:40;101116.56;;;2.12;92.72
24422;BME280;12600;53.326;-6.298;2024-01-15T05:30:31;101109.84;;;2.14;92.33
24422;BME280;12600;53.326;-6.298;2024-01-15T05:33:21;101116.88;;;2.15;92.06
24422;BME280;12600;53.326;-6.298;2024-01-15T05:36:10;101118.84;;;2.03;93.13
24422;BME280;12600;53.326;-6.298;2024-01-15T05:39:00;101125.34;;;2.07;92.94
24422;BME280;12600;53.326;-6.298;2024-01-15T05:41:49;101136.13;;;2.07;92.42
24422;BME280;12600;53.326;-6.298;2024-01-15T05:44:39;101132.38;;;2.08;92.65
24422;BME280;12600;53.326;-6.298;2024-01-15T05:47:30;101138.03;;;2.07;92.34
24422;BME280;12600;53.326;-6.298;2024-01-15T05:50:19;101153.63;;;2.05;91.96
24422;BME280;12600;53.326;-6.298;2024-01-15T05:53:09;101147.91;;;2.01;91.48
24422;BME280;12600;53.326;-6.298;2024-01-15T05:55:58;101130.25;;;1.93;92.52
24422;BME280;12600;53.326;-6.298;2024-01-15T05:58:49;101118.41;;;1.94;92.17
24422;BME280;12600;53.326;-6.298;2024-01-15T06:01:38;101112.41;;;1.92;92.68
24422;BME280;12600;53.326;-6.298;2024-01-15T06:04:29;101115.59;;;1.89;92.88
24422;BME280;12600;53.326;-6.298;2024-01-15T06:07:19;101108.47;;;1.83;92.63
24422;BME280;12600;53.326;-6.298;2024-01-15T06:10:08;101122.88;;;1.89;93.17
24422;BME280;12600;53.326;-6.298;2024-01-15T06:12:58;101134.81;;;1.93;93.36
24422;BME280;12600;53.326;-6.298;2024-01-15T06:15:47;101137.25;;;1.94;92.13
24422;BME280;12600;53.326;-6.298;2024-01-15T06:18:37;101139.13;;;1.94;92.08
24422;BME280;12600;53.326;-6.298;2024-01-15T06:21:28;101134.69;;;1.88;92.18
24422;BME280;12600;53.326;-6.298;2024-01-15T06:24:17;101130.84;;;1.84;92.28
24422;BME280;12600;53.326;-6.298;2024-01-15T06:27:08;101138.47;;;1.87;91.78
24422;BME280;12600;53.326;-6.298;2024-01-15T06:29:57;101132.72;;;1.83;92.14
24422;BME280;12600;53.326;-6.298;2024-01-15T06:32:47;101126.75;;;1.81;92.04
24422;BME280;12600;53.326;-6.298;2024-01-15T06:35:36;101123.63;;;1.73;92.85
24422;BME280;12600;53.326;-6.298;2024-01-15T06:38:27;101130.19;;;1.77;92.19
24422;BME280;12600;53.326;-6.298;2024-01-15T06:41:16;101125.81;;;1.76;92.23
24422;BME280;12600;53.326;-6.298;2024-01-15T06:44:05;101137.09;;;1.73;92.31
24422;BME280;12600;53.326;-6.298;2024-01-15T06:46:55;101147.28;;;1.71;92.06
24422;BME280;12600;53.326;-6.298;2024-01-15T06:49:50;101146.72;;;1.68;92.01
24422;BME280;12600;53.326;-6.298;2024-01-15T06:52:40;101153.94;;;1.68;92.11
24422;BME280;12600;53.326;-6.298;2024-01-15T06:55:31;101153.63;;;1.64;92.07
24422;BME280;12600;53.326;-6.298;2024-01-15T06:58:21;101153.63;;;1.64;92.35
24422;BME280;12600;53.326;-6.298;2024-01-15T07:01:10;101150.81;;;1.59;92.36
24422;BME280;12600;53.326;-6.298;2024-01-15T07:04:00;101151.28;;;1.56;92.51
24422;BME280;12600;53.326;-6.298;2024-01-15T07:06:49;101157.50;;;1.57;92.41
24422;BME280;12600;53.326;-6.298;2024-01-15T07:09:38;101149.09;;;1.53;92.36
24422;BME280;12600;53.326;-6.298;2024-01-15T07:12:29;101155.50;;;1.52;92.43
24422;BME280;12600;53.326;-6.298;2024-01-15T07:15:19;101149.53;;;1.50;91.92
24422;BME280;12600;53.326;-6.298;2024-01-15T07:18:08;101155.16;;;1.49;91.87
24422;BME280;12600;53.326;-6.298;2024-01-15T07:20:58;101144.28;;;1.44;91.86
24422;BME280;12600;53.326;-6.298;2024-01-15T07:23:49;101152.59;;;1.42;91.69
24422;BME280;12600;53.326;-6.298;2024-01-15T07:26:38;101160.69;;;1.42;91.66
24422;BME280;12600;53.326;-6.298;2024-01-15T07:29:29;101164.09;;;1.37;91.68
24422;BME280;12600;53.326;-6.298;2024-01-15T07:32:19;101161.03;;;1.34;91.96
24422;BME280;12600;53.326;-6.298;2024-01-15T07:35:08;101167.25;;;1.23;92.62
24422;BME280;12600;53.326;-6.298;2024-01-15T07:37:58;101171.47;;;1.30;92.59
24422;BME280;12600;53.326;-6.298;2024-01-15T07:40:48;101185.75;;;1.31;93.37
24422;BME280;12600;53.326;-6.298;2024-01-15T07:43:39;101169.59;;;1.31;93.01
24422;BME280;12600;53.326;-6.298;2024-01-15T07:46:30;101181.19;;;1.31;93.57
24422;BME280;12600;53.326;-6.298;2024-01-15T07:49:20;101183.38;;;1.34;92.99
24422;BME280;12600;53.326;-6.298;2024-01-15T07:52:09;101191.47;;;1.34;92.88
24422;BME280;12600;53.326;-6.298;2024-01-15T07:55:00;101192.53;;;1.33;92.60
24422;BME280;12600;53.326;-6.298;2024-01-15T07:57:52;101195.31;;;1.27;92.80
24422;BME280;12600;53.326;-6.298;2024-01-15T08:01:02;101201.31;;;1.29;93.13
24422;BME280;12600;53.326;-6.298;2024-01-15T08:03:53;101199.44;;;1.29;93.29
24422;BME280;12600;53.326;-6.298;2024-01-15T08:06:44;101186.66;;;1.25;92.59
24422;BME280;12600;53.326;-6.298;2024-01-15T08:09:34;101186.66;;;1.25;92.88
24422;BME280;12600;53.326;-6.298;2024-01-15T08:12:23;101178.34;;;1.26;92.90
24422;BME280;12600;53.326;-6.298;2024-01-15T08:15:13;101191.56;;;1.28;92.75
24422;BME280;12600;53.326;-6.298;2024-01-15T08:18:02;101192.38;;;1.28;92.68
24422;BME280;12600;53.326;-6.298;2024-01-15T08:20:54;101193.00;;;1.30;92.77
24422;BME280;12600;53.326;-6.298;2024-01-15T08:23:43;101191.13;;;1.31;92.64
24422;BME280;12600;53.326;-6.298;2024-01-15T08:26:32;101201.88;;;1.31;92.40
24422;BME280;12600;53.326;-6.298;2024-01-15T08:29:22;101209.72;;;1.32;92.46
24422;BME280;12600;53.326;-6.298;2024-01-15T08:32:12;101214.78;;;1.29;92.59
24422;BME280;12600;53.326;-6.298;2024-01-15T08:35:04;101215.34;;;1.31;92.28
24422;BME280;12600;53.326;-6.298;2024-01-15T08:37:55;101212.09;;;1.29;92.36
24422;BME280;12600;53.326;-6.298;2024-01-15T08:40:46;101205.28;;;1.26;92.25
24422;BME280;12600;53.326;-6.298;2024-01-15T08:43:36;101206.56;;;1.24;92.48
24422;BME280;12600;53.326;-6.298;2024-01-15T08:46:25;101207.97;;;1.26;92.36
24422;BME280;12600;53.326;-6.298;2024-01-15T08:49:15;101211.72;;;1.25;92.48
24422;BME280;12600;53.326;-6.298;2024-01-15T08:52:05;101211.47;;;1.27;92.81
24422;BME280;12600;53.326;-6.298;2024-01-15T08:54:57;101209.50;;;1.22;92.67
24422;BME280;12600;53.326;-6.298;2024-01-15T08:57:46;101221.78;;;1.30;93.33
24422;BME280;12600;53.326;-6.298;2024-01-15T09:00:36;101225.88;;;1.32;92.82
24422;BME280;12600;53.326;-6.298;2024-01-15T09:03:25;101228.91;;;1.36;93.41
24422;BME280;12600;53.326;-6.298;2024-01-15T09:06:15;101231.72;;;1.41;93.09
24422;BME280;12600;53.326;-6.298;2024-01-15T09:09:04;101225.78;;;1.39;93.75
24422;BME280;12600;53.326;-6.298;2024-01-15T09:11:55;101223.41;;;1.43;93.62
24422;BME280;12600;53.326;-6.298;2024-01-15T09:14:45;101217.34;;;1.47;93.49
24422;BME280;12600;53.326;-6.298;2024-01-15T09:17:34;101218.50;;;1.51;93.26
24422;BME280;12600;53.326;-6.298;2024-01-15T09:20:24;101228.22;;;1.52;93.50
24422;BME280;12600;53.326;-6.298;2024-01-15T09:23:15;101226.69;;;1.56;93.54
24422;BME280;12600;53.326;-6.298;2024-01-15T09:26:06;101231.38;;;1.61;93.65
24422;BME280;12600;53.326;-6.298;2024-01-15T09:28:58;101238.75;;;1.65;93.75
24422;BME280;12600;53.326;-6.298;2024-01-15T09:31:49;101235.38;;;1.70;93.85
24422;BME280;12600;53.326;-6.298;2024-01-15T09:34:39;101227.16;;;1.77;93.30
24422;BME280;12600;53.326;-6.298;2024-01-15T09:37:30;101240.97;;;1.80;93.71
24422;BME280;12600;53.326;-6.298;2024-01-15T09:40:34;101237.44;;;1.80;93.99
24422;BME280;12600;53.326;-6.298;2024-01-15T09:43:27;101236.97;;;1.83;93.57
24422;BME280;12600;53.326;-6.298;2024-01-15T09:46:18;101245.16;;;1.88;93.66
24422;BME280;12600;53.326;-6.298;2024-01-15T09:49:07;101238.03;;;1.93;93.67
24422;BME280;12600;53.326;-6.298;2024-01-15T09:51:58;101243.16;;;1.95;93.95
24422;BME280;12600;53.326;-6.298;2024-01-15T09:54:59;101260.72;;;1.98;93.72
24422;BME280;12600;53.326;-6.298;2024-01-15T09:57:51;101260.41;;;1.94;93.73
24422;BME280;12600;53.326;-6.298;2024-01-15T10:00:42;101261.09;;;2.01;93.93
24422;BME280;12600;53.326;-6.298;2024-01-15T10:03:34;101251.47;;;2.05;93.99
24422;BME280;12600;53.326;-6.298;2024-01-15T10:06:27;101250.75;;;2.10;94.09
24422;BME280;12600;53.326;-6.298;2024-01-15T10:09:17;101243.50;;;2.10;93.83
24422;BME280;12600;53.326;-6.298;2024-01-15T10:12:08;101246.97;;;2.22;94.10
24422;BME280;12600;53.326;-6.298;2024-01-15T10:14:58;101245.31;;;2.21;93.44
24422;BME280;12600;53.326;-6.298;2024-01-15T10:17:48;101250.34;;;2.30;93.74
24422;BME280;12600;53.326;-6.298;2024-01-15T10:20:39;101257.59;;;2.29;93.59
24422;BME280;12600;53.326;-6.298;2024-01-15T10:23:32;101253.03;;;2.30;93.90
24422;BME280;12600;53.326;-6.298;2024-01-15T10:26:26;101248.25;;;2.20;93.51
24422;BME280;12600;53.326;-6.298;2024-01-15T10:29:15;101257.47;;;2.36;93.91
24422;BME280;12600;53.326;-6.298;2024-01-15T10:32:07;101255.91;;;2.40;93.52
24422;BME280;12600;53.326;-6.298;2024-01-15T10:34:57;101254.03;;;2.40;93.04
24422;BME280;12600;53.326;-6.298;2024-01-15T10:37:49;101253.59;;;2.43;93.62
24422;BME280;12600;53.326;-6.298;2024-01-15T10:40:38;101259.16;;;2.53;93.84
24422;BME280;12600;53.326;-6.298;2024-01-15T10:43:27;101254.25;;;2.50;93.36
24422;BME280;12600;53.326;-6.298;2024-01-15T10:46:17;101260.47;;;2.51;92.99
24422;BME280;12600;53.326;-6.298;2024-01-15T10:49:06;101263.25;;;2.56;93.13
24422;BME280;12600;53.326;-6.298;2024-01-15T10:51:57;101260.16;;;2.64;93.16
24422;BME280;12600;53.326;-6.298;2024-01-15T10:54:48;101270.38;;;2.62;93.10
24422;BME280;12600;53.326;-6.298;2024-01-15T10:57:38;101266.41;;;2.65;93.17
24422;BME280;12600;53.326;-6.298;2024-01-15T11:00:28;101274.31;;;2.71;93.23
24422;BME280;12600;53.326;-6.298;2024-01-15T11:03:18;101269.53;;;2.73;93.24
24422;BME280;12600;53.326;-6.298;2024-01-15T11:06:17;101266.34;;;2.76;92.72
24422;BME280;12600;53.326;-6.298;2024-01-15T11:09:08;101273.78;;;2.86;93.16
24422;BME280;12600;53.326;-6.298;2024-01-15T11:12:11;101266.50;;;2.87;92.70
24422;BME280;12600;53.326;-6.298;2024-01-15T11:15:04;101267.19;;;2.94;93.04
24422;BME280;12600;53.326;-6.298;2024-01-15T11:18:01;101272.19;;;3.02;92.49
24422;BME280;12600;53.326;-6.298;2024-01-15T11:21:24;101268.41;;;3.03;92.41
24422;BME280;12600;53.326;-6.298;2024-01-15T11:24:36;101273.81;;;3.03;91.53
24422;BME280;12600;53.326;-6.298;2024-01-15T11:27:42;101272.44;;;3.17;92.20
24422;BME280;12600;53.326;-6.298;2024-01-15T11:30:32;101270.31;;;3.19;92.46
24422;BME280;12600;53.326;-6.298;2024-01-15T11:33:34;101262.81;;;3.21;92.19
24422;BME280;12600;53.326;-6.298;2024-01-15T11:37:03;101263.44;;;3.28;91.76
24422;BME280;12600;53.326;-6.298;2024-01-15T11:39:54;101258.03;;;3.28;92.24
24422;BME280;12600;53.326;-6.298;2024-01-15T11:42:45;101260.09;;;3.38;91.44
24422;BME280;12600;53.326;-6.298;2024-01-15T11:45:36;101262.03;;;3.43;92.50
24422;BME280;12600;53.326;-6.298;2024-01-15T11:48:42;101256.47;;;3.49;90.75
24422;BME280;12600;53.326;-6.298;2024-01-15T11:51:34;101256.78;;;3.70;91.74
24422;BME280;12600;53.326;-6.298;2024-01-15T11:54:24;101256.19;;;4.06;92.80
24422;BME280;12600;53.326;-6.298;2024-01-15T11:57:21;101259.81;;;4.88;91.62
24422;BME280;12600;53.326;-6.298;2024-01-15T12:00:16;101238.97;;;5.95;93.28
24422;BME280;12600;53.326;-6.298;2024-01-15T12:03:06;101243.31;;;6.94;90.02
24422;BME280;12600;53.326;-6.298;2024-01-15T12:05:55;101248.19;;;7.73;85.82
24422;BME280;12600;53.326;-6.298;2024-01-15T12:08:46;101247.47;;;8.17;78.25
24422;BME280;12600;53.326;-6.298;2024-01-15T12:11:37;101242.97;;;8.57;76.67
24422;BME280;12600;53.326;-6.298;2024-01-15T12:14:28;101237.13;;;9.13;79.62
24422;BME280;12600;53.326;-6.298;2024-01-15T12:17:19;101248.00;;;9.76;76.77
24422;BME280;12600;53.326;-6.298;2024-01-15T12:20:10;101242.69;;;10.38;77.47
24422;BME280;12600;53.326;-6.298;2024-01-15T12:23:00;101230.59;;;10.62;71.15
24422;BME280;12600;53.326;-6.298;2024-01-15T12:25:54;101240.56;;;10.91;71.40
24422;BME280;12600;53.326;-6.298;2024-01-15T12:28:44;101231.22;;;11.11;74.87
24422;BME280;12600;53.326;-6.298;2024-01-15T12:31:34;101242.78;;;11.08;67.60
24422;BME280;12600;53.326;-6.298;2024-01-15T12:34:29;101239.59;;;11.01;61.43
24422;BME280;12600;53.326;-6.298;2024-01-15T12:37:19;101243.72;;;10.98;61.24
24422;BME280;12600;53.326;-6.298;2024-01-15T12:40:10;101237.88;;;11.24;62.01
24422;BME280;12600;53.326;-6.298;2024-01-15T12:43:00;101245.38;;;10.99;57.82
24422;BME280;12600;53.326;-6.298;2024-01-15T12:45:50;101230.75;;;10.71;52.61
24422;BME280;12600;53.326;-6.298;2024-01-15T12:48:39;101234.72;;;10.41;52.12
24422;BME280;12600;53.326;-6.298;2024-01-15T12:51:31;101218.63;;;10.16;53.97
24422;BME280;12600;53.326;-6.298;2024-01-15T12:54:23;101220.25;;;9.69;53.14
24422;BME280;12600;53.326;-6.298;2024-01-15T12:57:13;101214.16;;;9.77;54.82
24422;BME280;12600;53.326;-6.298;2024-01-15T13:00:05;101212.94;;;9.35;54.08
24422;BME280;12600;53.326;-6.298;2024-01-15T13:03:02;101218.06;;;9.71;55.22
24422;BME280;12600;53.326;-6.298;2024-01-15T13:05:52;101215.09;;;9.91;54.57
24422;BME280;12600;53.326;-6.298;2024-01-15T13:08:43;101200.59;;;10.39;54.50
24422;BME280;12600;53.326;-6.298;2024-01-15T13:11:33;101209.47;;;10.87;55.16
24422;BME280;12600;53.326;-6.298;2024-01-15T13:14:22;101204.00;;;10.87;54.46
24422;BME280;12600;53.326;-6.298;2024-01-15T13:17:12;101200.06;;;10.74;52.73
24422;BME280;12600;53.326;-6.298;2024-01-15T13:20:03;101203.56;;;10.61;52.83
24422;BME280;12600;53.326;-6.298;2024-01-15T13:22:53;101180.22;;;10.31;52.66
24422;BME280;12600;53.326;-6.298;2024-01-15T13:25:44;101189.09;;;10.42;55.11
24422;BME280;12600;53.326;-6.298;2024-01-15T13:28:34;101188.25;;;10.22;53.62
24422;BME280;12600;53.326;-6.298;2024-01-15T13:31:24;101184.28;;;10.09;54.94
24422;BME280;12600;53.326;-6.298;2024-01-15T13:34:13;101192.13;;;9.73;54.51
24422;BME280;12600;53.326;-6.298;2024-01-15T13:37:03;101178.59;;;9.05;54.36
24422;BME280;12600;53.326;-6.298;2024-01-15T13:39:53;101177.16;;;8.39;56.28
24422;BME280;12600;53.326;-6.298;2024-01-15T13:42:45;101177.13;;;7.90;57.91
24422;BME280;12600;53.326;-6.298;2024-01-15T13:45:35;101185.66;;;7.53;59.69
24422;BME280;12600;53.326;-6.298;2024-01-15T13:48:25;101178.41;;;7.23;60.81
24422;BME280;12600;53.326;-6.298;2024-01-15T13:51:15;101183.84;;;7.03;62.18
24422;BME280;12600;53.326;-6.298;2024-01-15T13:54:04;101168.91;;;6.85;62.99
24422;BME280;12600;53.326;-6.298;2024-01-15T13:56:54;101172.69;;;6.73;63.39
24422;BME280;12600;53.326;-6.298;2024-01-15T13:59:45;101167.53;;;6.62;64.09
24422;BME280;12600;53.326;-6.298;2024-01-15T14:02:34;101164.22;;;6.50;64.27
24422;BME280;12600;53.326;-6.298;2024-01-15T14:05:27;101169.66;;;6.50;65.15
24422;BME280;12600;53.326;-6.298;2024-01-15T14:08:16;101158.00;;;6.34;66.09
24422;BME280;12600;53.326;-6.298;2024-01-15T14:11:07;101158.22;;;6.22;67.12
24422;BME280;12600;53.326;-6.298;2024-01-15T14:13:58;101150.09;;;6.27;66.68
24422;BME280;12600;53.326;-6.298;2024-01-15T14:16:49;101158.47;;;6.15;66.99
24422;BME280;12600;53.326;-6.298;2024-01-15T14:19:38;101156.88;;;6.20;66.88
24422;BME280;12600;53.326;-6.298;2024-01-15T14:22:28;101158.22;;;6.22;66.97
24422;BME280;12600;53.326;-6.298;2024-01-15T14:25:20;101153.88;;;6.21;67.40
24422;BME280;12600;53.326;-6.298;2024-01-15T14:28:09;101149.25;;;6.16;67.78
24422;BME280;12600;53.326;-6.298;2024-01-15T14:30:59;101142.72;;;6.02;67.95
24422;BME280;12600;53.326;-6.298;2024-01-15T14:33:50;101152.72;;;5.97;67.61
24422;BME280;12600;53.326;-6.298;2024-01-15T14:36:40;101151.84;;;5.86;68.73
24422;BME280;12600;53.326;-6.298;2024-01-15T14:39:29;101153.97;;;5.79;68.70
24422;BME280;12600;53.326;-6.298;2024-01-15T14:42:22;101158.06;;;5.81;69.00
24422;BME280;12600;53.326;-6.298;2024-01-15T14:45:12;101150.13;;;5.65;69.31
24422;BME280;12600;53.326;-6.298;2024-01-15T14:48:02;101147.69;;;5.63;69.38
24422;BME280;12600;53.326;-6.298;2024-01-15T14:50:53;101148.75;;;5.62;69.27
24422;BME280;12600;53.326;-6.298;2024-01-15T14:53:42;101147.69;;;5.63;69.38
24422;BME280;12600;53.326;-6.298;2024-01-15T14:56:32;101147.09;;;5.61;69.97
24422;BME280;12600;53.326;-6.298;2024-01-15T14:59:21;101150.09;;;5.59;69.76
24422;BME280;12600;53.326;-6.298;2024-01-15T15:02:11;101138.41;;;5.54;70.35
24422;BME280;12600;53.326;-6.298;2024-01-15T15:05:02;101139.19;;;5.49;70.61
24422;BME280;12600;53.326;-6.298;2024-01-15T15:07:53;101146.47;;;5.39;70.33
24422;BME280;12600;53.326;-6.298;2024-01-15T15:10:43;101151.34;;;5.42;70.75
24422;BME280;12600;53.326;-6.298;2024-01-15T15:13:32;101148.88;;;5.35;71.45
24422;BME280;12600;53.326;-6.298;2024-01-15T15:16:32;101148.00;;;5.24;72.00
24422;BME280;12600;53.326;-6.298;2024-01-15T15:19:21;101149.31;;;5.17;73.68
24422;BME280;12600;53.326;-6.298;2024-01-15T15:22:14;101155.56;;;5.22;72.85
24422;BME280;12600;53.326;-6.298;2024-01-15T15:25:05;101151.94;;;5.07;74.78
24422;BME280;12600;53.326;-6.298;2024-01-15T15:27:57;101150.34;;;5.11;73.73
24422;BME280;12600;53.326;-6.298;2024-01-15T15:30:46;101140.47;;;4.94;74.12
24422;BME280;12600;53.326;-6.298;2024-01-15T15:33:36;101165.44;;;5.01;74.05
24422;BME280;12600;53.326;-6.298;2024-01-15T15:36:26;101164.06;;;4.99;73.48
24422;BME280;12600;53.326;-6.298;2024-01-15T15:39:15;101167.00;;;4.92;73.35
24422;BME280;12600;53.326;-6.298;2024-01-15T15:42:07;101164.81;;;4.89;74.13
24422;BME280;12600;53.326;-6.298;2024-01-15T15:44:56;101154.97;;;4.78;75.16
24422;BME280;12600;53.326;-6.298;2024-01-15T15:47:49;101161.25;;;4.84;74.92
24422;BME280;12600;53.326;-6.298;2024-01-15T15:50:38;101157.72;;;4.83;74.38
24422;BME280;12600;53.326;-6.298;2024-01-15T15:53:28;101155.03;;;4.83;74.73
24422;BME280;12600;53.326;-6.298;2024-01-15T15:56:18;101156.59;;;4.79;74.91
24422;BME280;12600;53.326;-6.298;2024-01-15T15:59:09;101154.97;;;4.78;75.85
24422;BME280;12600;53.326;-6.298;2024-01-15T16:01:58;101153.34;;;4.77;74.93
24422;BME280;12600;53.326;-6.298;2024-01-15T16:04:48;101161.19;;;4.78;75.63
24422;BME280;12600;53.326;-6.298;2024-01-15T16:07:37;101157.94;;;4.76;75.28
24422;BME280;12600;53.326;-6.298;2024-01-15T16:10:27;101157.38;;;4.74;74.64
24422;BME280;12600;53.326;-6.298;2024-01-15T16:13:16;101159.75;;;4.66;75.83
24422;BME280;12600;53.326;-6.298;2024-01-15T16:16:07;101154.00;;;4.62;75.98
24422;BME280;12600;53.326;-6.298;2024-01-15T16:19:17;101150.19;;;4.58;77.02
24422;BME280;12600;53.326;-6.298;2024-01-15T16:22:26;101149.88;;;4.55;76.20
24422;BME280;12600;53.326;-6.298;2024-01-15T16:25:36;101150.97;;;4.54;76.32
24422;BME280;12600;53.326;-6.298;2024-01-15T16:28:27;101149.53;;;4.46;76.63
24422;BME280;12600;53.326;-6.298;2024-01-15T16:31:18;101146.78;;;4.41;76.85
24422;BME280;12600;53.326;-6.298;2024-01-15T16:34:07;101141.81;;;4.33;77.60
24422;BME280;12600;53.326;-6.298;2024-01-15T16:37:00;101153.72;;;4.32;77.86
24422;BME280;12600;53.326;-6.298;2024-01-15T16:39:49;101157.19;;;4.27;76.71
24422;BME280;12600;53.326;-6.298;2024-01-15T16:42:39;101158.47;;;4.19;77.63
24422;BME280;12600;53.326;-6.298;2024-01-15T16:45:29;101155.44;;;4.16;77.28
24422;BME280;12600;53.326;-6.298;2024-01-15T16:48:20;101144.25;;;4.07;77.72
24422;BME280;12600;53.326;-6.298;2024-01-15T16:51:11;101152.56;;;4.01;77.97
24422;BME280;12600;53.326;-6.298;2024-01-15T16:54:01;101155.78;;;3.98;77.47
24422;BME280;12600;53.326;-6.298;2024-01-15T16:56:50;101153.84;;;3.93;78.03
24422;BME280;12600;53.326;-6.298;2024-01-15T16:59:40;101160.56;;;3.90;78.29
24422;BME280;12600;53.326;-6.298;2024-01-15T17:02:29;101159.69;;;3.85;78.35
24422;BME280;12600;53.326;-6.298;2024-01-15T17:05:22;101148.50;;;3.76;79.77
24422;BME280;12600;53.326;-6.298;2024-01-15T17:08:12;101152.59;;;3.79;80.08
24422;BME280;12600;53.326;-6.298;2024-01-15T17:11:01;101159.81;;;3.73;79.08